Terminal Aerodrome Forecast
Issued by NWS Kansas City/Pleasant Hill, MO

Home | Current Version | Previous Version | Text Only | Print | Product List | Glossary On
Versions: 1 2 3 4 5 6 7 8 9 10 11
789
FTUS43 KEAX 252329
TAFMCI
TAF
KMCI 252329Z 2600/2624 24008KT P6SM BKN040 BKN150
     FM260300 34010KT 6SM -SHRA VCTS OVC035CB
     FM260600 33010KT P6SM VCSH OVC015
     FM261000 33010KT P6SM OVC010
     FM261800 33010KT P6SM OVC020
     FM262200 33009KT P6SM BKN025=

USA.gov is the U.S. government's official web portal to all federal, state and local government web resources and services.